Terminal Aerodrome Forecast
Issued by NWS Wilmington, OH

Current Version | Previous Version | Graphics & Text | Print | Product List | Glossary On
Versions: 1 2 3 4 5 6 7 8 9 10 11 12 13 14 15 16 17 18 19 20 21 22 23 24 25 26 27 28 29
000
FTUS41 KILN 220500
TAFCVG
TAF
KCVG 220524Z 2206/2312 30006KT P6SM OVC025
     FM220800 31004KT P6SM OVC015
     FM221000 31004KT 5SM BR OVC008
     FM221500 32005KT P6SM OVC012
     FM221800 33005KT P6SM OVC022
     FM230100 04004KT P6SM BKN025
     FM230600 VRB03KT P6SM SCT025=

USA.gov is the U.S. government's official web portal to all federal, state and local government web resources and services.